sensor_id;sensor_type;location;lat;lon;timestamp;P1;durP1;ratioP1;P2;durP2;ratioP2
56419;SDS011;42323;52.170;7.538;2022-08-11T00:00:03;3.50;;;1.95;;
56419;SDS011;42323;52.170;7.538;2022-08-11T00:02:36;3.38;;;1.95;;
56419;SDS011;42323;52.170;7.538;2022-08-11T00:05:07;4.18;;;1.73;;
56419;SDS011;42323;52.170;7.538;2022-08-11T00:07:51;2.78;;;1.65;;
56419;SDS011;42323;52.170;7.538;2022-08-11T00:10:23;3.58;;;2.13;;
56419;SDS011;42323;52.170;7.538;2022-08-11T00:12:54;3.20;;;1.52;;
56419;SDS011;42323;52.170;7.538;2022-08-11T00:15:22;2.60;;;1.90;;
56419;SDS011;42323;52.170;7.538;2022-08-11T00:17:55;2.15;;;1.60;;
56419;SDS011;42323;52.170;7.538;2022-08-11T00:20:33;3.05;;;2.17;;
56419;SDS011;42323;52.170;7.538;2022-08-11T00:23:05;5.13;;;2.47;;
56419;SDS011;42323;52.170;7.538;2022-08-11T00:25:39;4.32;;;1.90;;
56419;SDS011;42323;52.170;7.538;2022-08-11T00:28:23;3.65;;;1.80;;
56419;SDS011;42323;52.170;7.538;2022-08-11T00:30:56;3.05;;;1.90;;
56419;SDS011;42323;52.170;7.538;2022-08-11T00:33:40;3.55;;;1.70;;
56419;SDS011;42323;52.170;7.538;2022-08-11T00:36:14;2.17;;;1.90;;
56419;SDS011;42323;52.170;7.538;2022-08-11T00:38:50;4.40;;;1.98;;
56419;SDS011;42323;52.170;7.538;2022-08-11T00:49:39;2.92;;;1.80;;
56419;SDS011;42323;52.170;7.538;2022-08-11T00:52:35;2.88;;;2.03;;
56419;SDS011;42323;52.170;7.538;2022-08-11T01:21:12;2.78;;;1.83;;
56419;SDS011;42323;52.170;7.538;2022-08-11T01:37:05;3.88;;;1.98;;
56419;SDS011;42323;52.170;7.538;2022-08-11T01:45:46;3.17;;;2.40;;
56419;SDS011;42323;52.170;7.538;2022-08-11T01:48:30;2.92;;;2.03;;
56419;SDS011;42323;52.170;7.538;2022-08-11T01:54:32;2.10;;;1.85;;
56419;SDS011;42323;52.170;7.538;2022-08-11T01:59:53;6.43;;;2.60;;
56419;SDS011;42323;52.170;7.538;2022-08-11T02:11:18;2.33;;;1.80;;
56419;SDS011;42323;52.170;7.538;2022-08-11T02:20:00;6.30;;;2.40;;
56419;SDS011;42323;52.170;7.538;2022-08-11T02:28:52;3.03;;;2.20;;
56419;SDS011;42323;52.170;7.538;2022-08-11T02:35:24;5.13;;;2.60;;
56419;SDS011;42323;52.170;7.538;2022-08-11T02:43:55;2.70;;;1.90;;
56419;SDS011;42323;52.170;7.538;2022-08-11T02:58:13;2.80;;;2.03;;
56419;SDS011;42323;52.170;7.538;2022-08-11T03:00:56;3.35;;;2.30;;
56419;SDS011;42323;52.170;7.538;2022-08-11T03:03:36;5.65;;;2.28;;
56419;SDS011;42323;52.170;7.538;2022-08-11T03:06:32;4.80;;;2.97;;
56419;SDS011;42323;52.170;7.538;2022-08-11T03:11:51;4.18;;;2.60;;
56419;SDS011;42323;52.170;7.538;2022-08-11T03:20:52;4.55;;;2.70;;
56419;SDS011;42323;52.170;7.538;2022-08-11T03:23:36;4.82;;;2.70;;
56419;SDS011;42323;52.170;7.538;2022-08-11T03:26:13;3.45;;;2.60;;
56419;SDS011;42323;52.170;7.538;2022-08-11T03:31:28;3.90;;;3.10;;
56419;SDS011;42323;52.170;7.538;2022-08-11T03:34:06;2.88;;;2.50;;
56419;SDS011;42323;52.170;7.538;2022-08-11T03:50:43;4.55;;;3.00;;
56419;SDS011;42323;52.170;7.538;2022-08-11T03:53:37;4.35;;;2.72;;
56419;SDS011;42323;52.170;7.538;2022-08-11T03:59:31;5.47;;;3.13;;
56419;SDS011;42323;52.170;7.538;2022-08-11T04:02:14;4.60;;;2.80;;
56419;SDS011;42323;52.170;7.538;2022-08-11T04:10:54;4.07;;;2.72;;
56419;SDS011;42323;52.170;7.538;2022-08-11T04:39:39;4.65;;;3.20;;
56419;SDS011;42323;52.170;7.538;2022-08-11T04:57:13;6.53;;;2.70;;
56419;SDS011;42323;52.170;7.538;2022-08-11T05:00:07;5.82;;;2.90;;
56419;SDS011;42323;52.170;7.538;2022-08-11T05:03:19;4.72;;;3.00;;
56419;SDS011;42323;52.170;7.538;2022-08-11T05:06:27;5.68;;;2.95;;
56419;SDS011;42323;52.170;7.538;2022-08-11T05:14:35;4.22;;;2.75;;
56419;SDS011;42323;52.170;7.538;2022-08-11T05:17:34;5.03;;;3.20;;
56419;SDS011;42323;52.170;7.538;2022-08-11T05:20:45;5.30;;;2.78;;
56419;SDS011;42323;52.170;7.538;2022-08-11T05:23:34;5.70;;;2.85;;
56419;SDS011;42323;52.170;7.538;2022-08-11T05:26:25;4.30;;;2.83;;
56419;SDS011;42323;52.170;7.538;2022-08-11T05:32:33;7.95;;;2.97;;
56419;SDS011;42323;52.170;7.538;2022-08-11T05:35:30;8.52;;;2.80;;
56419;SDS011;42323;52.170;7.538;2022-08-11T05:38:24;5.40;;;2.97;;
56419;SDS011;42323;52.170;7.538;2022-08-11T05:41:12;5.32;;;2.83;;
56419;SDS011;42323;52.170;7.538;2022-08-11T05:43:58;4.25;;;2.95;;
56419;SDS011;42323;52.170;7.538;2022-08-11T05:46:48;5.78;;;3.28;;
56419;SDS011;42323;52.170;7.538;2022-08-11T05:49:34;3.42;;;2.90;;
56419;SDS011;42323;52.170;7.538;2022-08-11T05:52:23;5.00;;;3.13;;
56419;SDS011;42323;52.170;7.538;2022-08-11T05:55:20;6.00;;;2.90;;
56419;SDS011;42323;52.170;7.538;2022-08-11T05:58:34;4.50;;;2.75;;
56419;SDS011;42323;52.170;7.538;2022-08-11T06:01:08;4.53;;;2.63;;
56419;SDS011;42323;52.170;7.538;2022-08-11T06:03:37;3.67;;;2.28;;
56419;SDS011;42323;52.170;7.538;2022-08-11T06:06:24;8.95;;;2.92;;
56419;SDS011;42323;52.170;7.538;2022-08-11T06:08:54;3.00;;;2.15;;
56419;SDS011;42323;52.170;7.538;2022-08-11T06:11:23;3.83;;;2.72;;
56419;SDS011;42323;52.170;7.538;2022-08-11T06:14:09;3.65;;;2.50;;
56419;SDS011;42323;52.170;7.538;2022-08-11T06:16:39;6.05;;;3.00;;
56419;SDS011;42323;52.170;7.538;2022-08-11T06:19:08;4.57;;;2.50;;
56419;SDS011;42323;52.170;7.538;2022-08-11T06:21:35;5.07;;;2.72;;
56419;SDS011;42323;52.170;7.538;2022-08-11T06:24:04;5.63;;;2.60;;
56419;SDS011;42323;52.170;7.538;2022-08-11T06:26:37;7.35;;;2.67;;
56419;SDS011;42323;52.170;7.538;2022-08-11T06:29:35;4.72;;;2.38;;
56419;SDS011;42323;52.170;7.538;2022-08-11T06:32:23;2.90;;;2.00;;
56419;SDS011;42323;52.170;7.538;2022-08-11T06:35:00;3.95;;;2.20;;
56419;SDS011;42323;52.170;7.538;2022-08-11T06:44:26;5.53;;;2.20;;
56419;SDS011;42323;52.170;7.538;2022-08-11T06:46:48;5.30;;;2.25;;
56419;SDS011;42323;52.170;7.538;2022-08-11T06:49:18;4.00;;;2.00;;
56419;SDS011;42323;52.170;7.538;2022-08-11T06:52:07;3.85;;;2.20;;
56419;SDS011;42323;52.170;7.538;2022-08-11T06:54:59;3.33;;;1.73;;
56419;SDS011;42323;52.170;7.538;2022-08-11T06:57:54;7.75;;;2.35;;
56419;SDS011;42323;52.170;7.538;2022-08-11T07:00:40;5.60;;;2.10;;
56419;SDS011;42323;52.170;7.538;2022-08-11T07:03:11;3.00;;;1.73;;
56419;SDS011;42323;52.170;7.538;2022-08-11T07:05:52;4.43;;;2.05;;
56419;SDS011;42323;52.170;7.538;2022-08-11T07:14:38;5.38;;;1.77;;
56419;SDS011;42323;52.170;7.538;2022-08-11T07:17:31;2.63;;;1.70;;
56419;SDS011;42323;52.170;7.538;2022-08-11T07:20:03;3.67;;;2.00;;
56419;SDS011;42323;52.170;7.538;2022-08-11T07:22:55;4.55;;;1.88;;
56419;SDS011;42323;52.170;7.538;2022-08-11T07:25:46;4.00;;;1.67;;
56419;SDS011;42323;52.170;7.538;2022-08-11T07:28:38;2.42;;;1.70;;
56419;SDS011;42323;52.170;7.538;2022-08-11T07:31:34;3.65;;;1.88;;
56419;SDS011;42323;52.170;7.538;2022-08-11T07:34:20;3.90;;;1.33;;
56419;SDS011;42323;52.170;7.538;2022-08-11T07:36:57;3.70;;;1.70;;
56419;SDS011;42323;52.170;7.538;2022-08-11T07:39:26;2.70;;;1.52;;
56419;SDS011;42323;52.170;7.538;2022-08-11T07:41:57;2.35;;;1.52;;
56419;SDS011;42323;52.170;7.538;2022-08-11T07:44:25;4.53;;;1.70;;
56419;SDS011;42323;52.170;7.538;2022-08-11T07:47:00;3.67;;;1.90;;
56419;SDS011;42323;52.170;7.538;2022-08-11T07:49:46;3.67;;;1.55;;
56419;SDS011;42323;52.170;7.538;2022-08-11T07:52:34;4.50;;;1.42;;
56419;SDS011;42323;52.170;7.538;2022-08-11T07:55:04;4.13;;;1.58;;
56419;SDS011;42323;52.170;7.538;2022-08-11T07:57:35;6.35;;;1.95;;
56419;SDS011;42323;52.170;7.538;2022-08-11T08:00:42;2.22;;;1.35;;
56419;SDS011;42323;52.170;7.538;2022-08-11T08:03:41;2.88;;;1.52;;
56419;SDS011;42323;52.170;7.538;2022-08-11T08:06:28;3.95;;;1.63;;
56419;SDS011;42323;52.170;7.538;2022-08-11T08:09:17;2.42;;;1.45;;
56419;SDS011;42323;52.170;7.538;2022-08-11T08:12:05;4.00;;;1.50;;
56419;SDS011;42323;52.170;7.538;2022-08-11T08:14:52;3.38;;;1.60;;
56419;SDS011;42323;52.170;7.538;2022-08-11T08:17:39;3.13;;;1.48;;
56419;SDS011;42323;52.170;7.538;2022-08-11T08:20:46;2.58;;;1.25;;
56419;SDS011;42323;52.170;7.538;2022-08-11T08:23:18;6.63;;;1.65;;
56419;SDS011;42323;52.170;7.538;2022-08-11T08:26:00;3.13;;;1.77;;
56419;SDS011;42323;52.170;7.538;2022-08-11T08:28:29;3.85;;;1.63;;
56419;SDS011;42323;52.170;7.538;2022-08-11T08:30:59;5.03;;;2.00;;
56419;SDS011;42323;52.170;7.538;2022-08-11T08:33:29;2.42;;;1.60;;
56419;SDS011;42323;52.170;7.538;2022-08-11T08:35:59;4.82;;;1.67;;
56419;SDS011;42323;52.170;7.538;2022-08-11T08:38:41;2.53;;;1.73;;
56419;SDS011;42323;52.170;7.538;2022-08-11T08:41:12;3.25;;;1.60;;
56419;SDS011;42323;52.170;7.538;2022-08-11T08:43:45;3.17;;;1.85;;
56419;SDS011;42323;52.170;7.538;2022-08-11T08:46:18;2.85;;;1.65;;
56419;SDS011;42323;52.170;7.538;2022-08-11T08:48:49;2.45;;;1.50;;
56419;SDS011;42323;52.170;7.538;2022-08-11T08:51:18;5.97;;;1.80;;
56419;SDS011;42323;52.170;7.538;2022-08-11T08:54:20;2.92;;;1.60;;
56419;SDS011;42323;52.170;7.538;2022-08-11T08:56:51;3.38;;;1.90;;
56419;SDS011;42323;52.170;7.538;2022-08-11T08:59:21;3.47;;;1.85;;
56419;SDS011;42323;52.170;7.538;2022-08-11T09:01:58;4.35;;;2.00;;
56419;SDS011;42323;52.170;7.538;2022-08-11T09:04:27;2.17;;;1.83;;
56419;SDS011;42323;52.170;7.538;2022-08-11T09:06:55;5.40;;;1.70;;
56419;SDS011;42323;52.170;7.538;2022-08-11T09:09:28;2.33;;;1.67;;
56419;SDS011;42323;52.170;7.538;2022-08-11T09:11:57;3.63;;;1.73;;
56419;SDS011;42323;52.170;7.538;2022-08-11T09:14:26;3.10;;;2.03;;
56419;SDS011;42323;52.170;7.538;2022-08-11T09:17:18;3.13;;;1.70;;
56419;SDS011;42323;52.170;7.538;2022-08-11T09:19:46;2.80;;;1.73;;
56419;SDS011;42323;52.170;7.538;2022-08-11T09:22:22;4.70;;;1.77;;
56419;SDS011;42323;52.170;7.538;2022-08-11T09:25:08;3.92;;;1.90;;
56419;SDS011;42323;52.170;7.538;2022-08-11T09:27:54;2.95;;;1.88;;
56419;SDS011;42323;52.170;7.538;2022-08-11T09:30:22;4.50;;;1.90;;
56419;SDS011;42323;52.170;7.538;2022-08-11T09:32:54;7.47;;;1.77;;
56419;SDS011;42323;52.170;7.538;2022-08-11T09:35:24;4.00;;;1.88;;
56419;SDS011;42323;52.170;7.538;2022-08-11T09:37:55;2.53;;;1.63;;
56419;SDS011;42323;52.170;7.538;2022-08-11T09:40:43;2.60;;;1.60;;
56419;SDS011;42323;52.170;7.538;2022-08-11T09:43:21;3.15;;;2.00;;
56419;SDS011;42323;52.170;7.538;2022-08-11T09:46:08;3.60;;;1.63;;
56419;SDS011;42323;52.170;7.538;2022-08-11T09:48:37;3.33;;;2.03;;
56419;SDS011;42323;52.170;7.538;2022-08-11T09:51:06;2.35;;;1.63;;
56419;SDS011;42323;52.170;7.538;2022-08-11T09:53:36;4.00;;;1.83;;
56419;SDS011;42323;52.170;7.538;2022-08-11T09:56:11;3.40;;;1.83;;
56419;SDS011;42323;52.170;7.538;2022-08-11T09:59:00;5.20;;;2.00;;
56419;SDS011;42323;52.170;7.538;2022-08-11T10:01:29;4.18;;;1.80;;
56419;SDS011;42323;52.170;7.538;2022-08-11T10:04:02;3.08;;;1.67;;
56419;SDS011;42323;52.170;7.538;2022-08-11T10:06:34;2.58;;;1.73;;
56419;SDS011;42323;52.170;7.538;2022-08-11T10:09:23;4.88;;;1.50;;
56419;SDS011;42323;52.170;7.538;2022-08-11T10:11:56;2.88;;;1.73;;
56419;SDS011;42323;52.170;7.538;2022-08-11T10:14:25;2.80;;;1.95;;
56419;SDS011;42323;52.170;7.538;2022-08-11T10:17:14;4.05;;;1.77;;
56419;SDS011;42323;52.170;7.538;2022-08-11T10:19:44;2.80;;;1.60;;
56419;SDS011;42323;52.170;7.538;2022-08-11T10:22:30;2.35;;;1.45;;
56419;SDS011;42323;52.170;7.538;2022-08-11T10:25:17;2.05;;;1.40;;
56419;SDS011;42323;52.170;7.538;2022-08-11T10:28:06;2.35;;;1.60;;
56419;SDS011;42323;52.170;7.538;2022-08-11T10:30:55;1.88;;;1.60;;
56419;SDS011;42323;52.170;7.538;2022-08-11T10:33:43;2.28;;;1.35;;
56419;SDS011;42323;52.170;7.538;2022-08-11T10:36:27;3.50;;;1.55;;
56419;SDS011;42323;52.170;7.538;2022-08-11T10:38:58;2.42;;;1.50;;
56419;SDS011;42323;52.170;7.538;2022-08-11T10:41:26;3.83;;;1.40;;
56419;SDS011;42323;52.170;7.538;2022-08-11T10:44:39;3.42;;;1.70;;
56419;SDS011;42323;52.170;7.538;2022-08-11T10:47:10;1.77;;;1.25;;
56419;SDS011;42323;52.170;7.538;2022-08-11T10:49:58;2.78;;;1.52;;
56419;SDS011;42323;52.170;7.538;2022-08-11T10:52:48;1.90;;;1.48;;
56419;SDS011;42323;52.170;7.538;2022-08-11T10:55:37;3.97;;;1.40;;
56419;SDS011;42323;52.170;7.538;2022-08-11T10:58:24;2.63;;;1.50;;
56419;SDS011;42323;52.170;7.538;2022-08-11T11:01:10;4.00;;;1.30;;
56419;SDS011;42323;52.170;7.538;2022-08-11T11:03:38;2.55;;;1.30;;
56419;SDS011;42323;52.170;7.538;2022-08-11T11:08:56;2.47;;;1.17;;
56419;SDS011;42323;52.170;7.538;2022-08-11T11:11:32;2.67;;;1.40;;
56419;SDS011;42323;52.170;7.538;2022-08-11T11:14:21;4.25;;;1.45;;
56419;SDS011;42323;52.170;7.538;2022-08-11T11:17:28;1.60;;;1.02;;
56419;SDS011;42323;52.170;7.538;2022-08-11T11:23:09;2.83;;;1.45;;
56419;SDS011;42323;52.170;7.538;2022-08-11T11:26:02;3.30;;;1.20;;
56419;SDS011;42323;52.170;7.538;2022-08-11T11:37:19;3.83;;;1.50;;
56419;SDS011;42323;52.170;7.538;2022-08-11T11:39:48;1.88;;;1.17;;
56419;SDS011;42323;52.170;7.538;2022-08-11T11:42:16;2.72;;;1.40;;
56419;SDS011;42323;52.170;7.538;2022-08-11T11:44:44;3.83;;;1.35;;
56419;SDS011;42323;52.170;7.538;2022-08-11T11:47:13;2.85;;;1.50;;
56419;SDS011;42323;52.170;7.538;2022-08-11T11:49:44;4.72;;;1.40;;
56419;SDS011;42323;52.170;7.538;2022-08-11T11:52:18;3.03;;;1.23;;
56419;SDS011;42323;52.170;7.538;2022-08-11T11:54:46;1.88;;;1.15;;
56419;SDS011;42323;52.170;7.538;2022-08-11T11:57:16;5.05;;;1.20;;
56419;SDS011;42323;52.170;7.538;2022-08-11T12:00:07;3.92;;;1.48;;
56419;SDS011;42323;52.170;7.538;2022-08-11T12:02:59;2.78;;;1.35;;
56419;SDS011;42323;52.170;7.538;2022-08-11T12:05:28;3.20;;;1.33;;
56419;SDS011;42323;52.170;7.538;2022-08-11T12:07:58;1.95;;;1.30;;
56419;SDS011;42323;52.170;7.538;2022-08-11T12:10:53;2.67;;;1.23;;
56419;SDS011;42323;52.170;7.538;2022-08-11T12:13:40;3.72;;;1.20;;
56419;SDS011;42323;52.170;7.538;2022-08-11T12:16:10;3.60;;;1.40;;
56419;SDS011;42323;52.170;7.538;2022-08-11T12:19:00;2.72;;;1.30;;
56419;SDS011;42323;52.170;7.538;2022-08-11T12:21:29;3.05;;;1.42;;
56419;SDS011;42323;52.170;7.538;2022-08-11T12:23:59;2.08;;;1.42;;
56419;SDS011;42323;52.170;7.538;2022-08-11T12:26:45;1.95;;;1.23;;
56419;SDS011;42323;52.170;7.538;2022-08-11T12:29:43;2.85;;;1.17;;
56419;SDS011;42323;52.170;7.538;2022-08-11T12:32:20;4.03;;;1.42;;
56419;SDS011;42323;52.170;7.538;2022-08-11T12:34:49;2.90;;;1.30;;
56419;SDS011;42323;52.170;7.538;2022-08-11T12:37:44;2.92;;;1.20;;
56419;SDS011;42323;52.170;7.538;2022-08-11T12:40:34;2.97;;;1.23;;
56419;SDS011;42323;52.170;7.538;2022-08-11T12:43:42;1.98;;;1.30;;
56419;SDS011;42323;52.170;7.538;2022-08-11T12:46:35;1.77;;;0.98;;
56419;SDS011;42323;52.170;7.538;2022-08-11T12:49:11;3.00;;;1.15;;
56419;SDS011;42323;52.170;7.538;2022-08-11T12:52:04;2.57;;;1.23;;
56419;SDS011;42323;52.170;7.538;2022-08-11T12:57:16;1.80;;;1.00;;
56419;SDS011;42323;52.170;7.538;2022-08-11T13:00:08;1.20;;;1.10;;
56419;SDS011;42323;52.170;7.538;2022-08-11T13:02:54;2.58;;;0.98;;
56419;SDS011;42323;52.170;7.538;2022-08-11T13:05:41;1.75;;;1.15;;
56419;SDS011;42323;52.170;7.538;2022-08-11T13:08:11;1.73;;;1.27;;
56419;SDS011;42323;52.170;7.538;2022-08-11T13:10:41;1.40;;;1.08;;
56419;SDS011;42323;52.170;7.538;2022-08-11T13:13:28;2.92;;;1.20;;
56419;SDS011;42323;52.170;7.538;2022-08-11T13:16:16;1.85;;;1.10;;
56419;SDS011;42323;52.170;7.538;2022-08-11T13:18:44;1.48;;;1.00;;
56419;SDS011;42323;52.170;7.538;2022-08-11T13:21:11;3.38;;;1.10;;
56419;SDS011;42323;52.170;7.538;2022-08-11T13:23:47;2.50;;;1.02;;
56419;SDS011;42323;52.170;7.538;2022-08-11T13:26:29;2.67;;;0.98;;
56419;SDS011;42323;52.170;7.538;2022-08-11T13:29:17;1.95;;;0.90;;
56419;SDS011;42323;52.170;7.538;2022-08-11T13:31:49;6.18;;;1.10;;
56419;SDS011;42323;52.170;7.538;2022-08-11T13:34:18;1.90;;;1.15;;
56419;SDS011;42323;52.170;7.538;2022-08-11T13:36:55;2.25;;;1.00;;
56419;SDS011;42323;52.170;7.538;2022-08-11T13:39:27;2.17;;;1.15;;
56419;SDS011;42323;52.170;7.538;2022-08-11T13:41:57;2.38;;;0.95;;
56419;SDS011;42323;52.170;7.538;2022-08-11T13:44:26;3.60;;;1.02;;
56419;SDS011;42323;52.170;7.538;2022-08-11T13:46:56;1.10;;;0.90;;
56419;SDS011;42323;52.170;7.538;2022-08-11T13:49:27;1.38;;;1.02;;
56419;SDS011;42323;52.170;7.538;2022-08-11T13:52:00;2.22;;;0.90;;
56419;SDS011;42323;52.170;7.538;2022-08-11T13:54:33;1.13;;;0.90;;
56419;SDS011;42323;52.170;7.538;2022-08-11T13:57:04;2.80;;;1.05;;
56419;SDS011;42323;52.170;7.538;2022-08-11T13:59:53;3.90;;;1.17;;
56419;SDS011;42323;52.170;7.538;2022-08-11T14:02:42;3.55;;;1.50;;
56419;SDS011;42323;52.170;7.538;2022-08-11T14:05:12;1.92;;;1.10;;
56419;SDS011;42323;52.170;7.538;2022-08-11T14:07:52;4.75;;;1.30;;
56419;SDS011;42323;52.170;7.538;2022-08-11T14:10:54;1.88;;;0.90;;
56419;SDS011;42323;52.170;7.538;2022-08-11T14:14:03;4.63;;;1.25;;
56419;SDS011;42323;52.170;7.538;2022-08-11T14:16:34;1.83;;;1.13;;
56419;SDS011;42323;52.170;7.538;2022-08-11T14:19:06;1.75;;;1.00;;
56419;SDS011;42323;52.170;7.538;2022-08-11T14:21:38;4.32;;;1.13;;
56419;SDS011;42323;52.170;7.538;2022-08-11T14:24:36;1.40;;;1.20;;
56419;SDS011;42323;52.170;7.538;2022-08-11T14:27:06;5.65;;;1.20;;
56419;SDS011;42323;52.170;7.538;2022-08-11T14:29:56;4.07;;;1.23;;
56419;SDS011;42323;52.170;7.538;2022-08-11T14:32:24;2.97;;;1.27;;
56419;SDS011;42323;52.170;7.538;2022-08-11T14:34:52;4.38;;;1.15;;
56419;SDS011;42323;52.170;7.538;2022-08-11T14:37:21;2.97;;;1.10;;
56419;SDS011;42323;52.170;7.538;2022-08-11T14:42:28;1.98;;;0.80;;
56419;SDS011;42323;52.170;7.538;2022-08-11T14:45:15;3.25;;;1.17;;
56419;SDS011;42323;52.170;7.538;2022-08-11T14:48:21;1.42;;;1.20;;
56419;SDS011;42323;52.170;7.538;2022-08-11T14:50:48;2.75;;;1.25;;
56419;SDS011;42323;52.170;7.538;2022-08-11T14:53:16;6.47;;;1.20;;
56419;SDS011;42323;52.170;7.538;2022-08-11T14:55:44;2.60;;;1.00;;
56419;SDS011;42323;52.170;7.538;2022-08-11T14:58:30;2.35;;;1.17;;
56419;SDS011;42323;52.170;7.538;2022-08-11T15:00:59;1.92;;;1.23;;
56419;SDS011;42323;52.170;7.538;2022-08-11T15:03:29;6.00;;;0.98;;
56419;SDS011;42323;52.170;7.538;2022-08-11T15:05:59;2.13;;;1.08;;
56419;SDS011;42323;52.170;7.538;2022-08-11T15:08:28;3.60;;;1.27;;
56419;SDS011;42323;52.170;7.538;2022-08-11T15:11:18;0.95;;;0.88;;
56419;SDS011;42323;52.170;7.538;2022-08-11T15:14:06;1.80;;;1.00;;
56419;SDS011;42323;52.170;7.538;2022-08-11T15:16:39;1.75;;;1.08;;
56419;SDS011;42323;52.170;7.538;2022-08-11T15:19:30;2.60;;;1.20;;
56419;SDS011;42323;52.170;7.538;2022-08-11T15:22:06;1.13;;;0.80;;
56419;SDS011;42323;52.170;7.538;2022-08-11T15:24:56;3.28;;;1.00;;
56419;SDS011;42323;52.170;7.538;2022-08-11T15:27:24;1.73;;;1.08;;
56419;SDS011;42323;52.170;7.538;2022-08-11T15:30:14;3.10;;;1.00;;
56419;SDS011;42323;52.170;7.538;2022-08-11T15:33:03;1.42;;;1.08;;
56419;SDS011;42323;52.170;7.538;2022-08-11T15:35:51;2.25;;;0.90;;
56419;SDS011;42323;52.170;7.538;2022-08-11T15:38:38;1.83;;;1.00;;
56419;SDS011;42323;52.170;7.538;2022-08-11T15:41:09;2.13;;;1.02;;
56419;SDS011;42323;52.170;7.538;2022-08-11T15:44:01;1.33;;;1.10;;
56419;SDS011;42323;52.170;7.538;2022-08-11T15:47:12;2.08;;;1.20;;
56419;SDS011;42323;52.170;7.538;2022-08-11T15:49:40;2.28;;;1.20;;
56419;SDS011;42323;52.170;7.538;2022-08-11T15:52:33;3.00;;;0.88;;
56419;SDS011;42323;52.170;7.538;2022-08-11T15:55:06;1.98;;;1.10;;
56419;SDS011;42323;52.170;7.538;2022-08-11T15:57:34;2.30;;;1.00;;
56419;SDS011;42323;52.170;7.538;2022-08-11T16:00:21;2.65;;;1.10;;
56419;SDS011;42323;52.170;7.538;2022-08-11T16:03:07;2.08;;;1.00;;
56419;SDS011;42323;52.170;7.538;2022-08-11T16:06:14;5.03;;;1.20;;
56419;SDS011;42323;52.170;7.538;2022-08-11T16:08:41;1.88;;;1.05;;
56419;SDS011;42323;52.170;7.538;2022-08-11T16:11:10;2.80;;;1.00;;
56419;SDS011;42323;52.170;7.538;2022-08-11T16:13:38;1.58;;;1.05;;
56419;SDS011;42323;52.170;7.538;2022-08-11T16:16:06;3.33;;;1.20;;
56419;SDS011;42323;52.170;7.538;2022-08-11T16:18:53;1.40;;;1.10;;
56419;SDS011;42323;52.170;7.538;2022-08-11T16:21:26;3.20;;;1.00;;
56419;SDS011;42323;52.170;7.538;2022-08-11T16:24:04;1.48;;;0.93;;
56419;SDS011;42323;52.170;7.538;2022-08-11T16:26:54;5.85;;;1.50;;
56419;SDS011;42323;52.170;7.538;2022-08-11T16:29:37;1.02;;;0.80;;
56419;SDS011;42323;52.170;7.538;2022-08-11T16:32:08;1.40;;;0.90;;
56419;SDS011;42323;52.170;7.538;2022-08-11T16:34:53;3.35;;;1.10;;
56419;SDS011;42323;52.170;7.538;2022-08-11T16:37:42;1.77;;;1.02;;
56419;SDS011;42323;52.170;7.538;2022-08-11T16:40:28;1.70;;;1.10;;
56419;SDS011;42323;52.170;7.538;2022-08-11T16:42:57;3.42;;;1.10;;
56419;SDS011;42323;52.170;7.538;2022-08-11T16:45:45;1.75;;;1.13;;
56419;SDS011;42323;52.170;7.538;2022-08-11T16:48:33;3.97;;;1.00;;
56419;SDS011;42323;52.170;7.538;2022-08-11T16:51:07;1.55;;;1.13;;
56419;SDS011;42323;52.170;7.538;2022-08-11T16:53:37;3.13;;;0.90;;
56419;SDS011;42323;52.170;7.538;2022-08-11T16:56:31;1.50;;;1.30;;
56419;SDS011;42323;52.170;7.538;2022-08-11T16:59:05;1.73;;;1.10;;
56419;SDS011;42323;52.170;7.538;2022-08-11T17:02:26;3.88;;;1.13;;
56419;SDS011;42323;52.170;7.538;2022-08-11T17:04:35;1.45;;;0.93;;
56419;SDS011;42323;52.170;7.538;2022-08-11T17:07:34;2.35;;;1.00;;
56419;SDS011;42323;52.170;7.538;2022-08-11T17:10:27;2.15;;;1.05;;
56419;SDS011;42323;52.170;7.538;2022-08-11T17:13:28;2.40;;;1.00;;
56419;SDS011;42323;52.170;7.538;2022-08-11T17:16:01;2.40;;;1.20;;
56419;SDS011;42323;52.170;7.538;2022-08-11T17:18:39;2.28;;;1.23;;
56419;SDS011;42323;52.170;7.538;2022-08-11T17:21:19;2.03;;;1.30;;
56419;SDS011;42323;52.170;7.538;2022-08-11T17:24:05;4.25;;;1.50;;
56419;SDS011;42323;52.170;7.538;2022-08-11T17:26:41;3.47;;;1.13;;
56419;SDS011;42323;52.170;7.538;2022-08-11T17:31:54;2.22;;;1.10;;
56419;SDS011;42323;52.170;7.538;2022-08-11T17:34:43;3.88;;;1.05;;
56419;SDS011;42323;52.170;7.538;2022-08-11T17:37:31;3.78;;;1.20;;
56419;SDS011;42323;52.170;7.538;2022-08-11T17:40:00;2.67;;;1.35;;
56419;SDS011;42323;52.170;7.538;2022-08-11T17:42:31;1.50;;;1.20;;
56419;SDS011;42323;52.170;7.538;2022-08-11T17:45:17;2.25;;;1.25;;
56419;SDS011;42323;52.170;7.538;2022-08-11T17:48:06;2.72;;;1.45;;
56419;SDS011;42323;52.170;7.538;2022-08-11T17:51:02;3.05;;;1.30;;
56419;SDS011;42323;52.170;7.538;2022-08-11T17:53:35;2.10;;;1.20;;
56419;SDS011;42323;52.170;7.538;2022-08-11T17:56:42;2.45;;;1.30;;
56419;SDS011;42323;52.170;7.538;2022-08-11T17:59:28;2.15;;;1.20;;
56419;SDS011;42323;52.170;7.538;2022-08-11T18:02:15;3.28;;;1.10;;
56419;SDS011;42323;52.170;7.538;2022-08-11T18:05:02;1.55;;;1.10;;
56419;SDS011;42323;52.170;7.538;2022-08-11T18:07:39;4.25;;;1.30;;
56419;SDS011;42323;52.170;7.538;2022-08-11T18:10:27;1.85;;;1.33;;
56419;SDS011;42323;52.170;7.538;2022-08-11T18:13:22;2.38;;;1.20;;
56419;SDS011;42323;52.170;7.538;2022-08-11T18:16:08;3.42;;;1.40;;
56419;SDS011;42323;52.170;7.538;2022-08-11T18:18:55;2.15;;;1.45;;
56419;SDS011;42323;52.170;7.538;2022-08-11T18:21:41;3.58;;;1.33;;
56419;SDS011;42323;52.170;7.538;2022-08-11T18:24:46;4.70;;;1.27;;
56419;SDS011;42323;52.170;7.538;2022-08-11T18:27:36;4.47;;;1.40;;
56419;SDS011;42323;52.170;7.538;2022-08-11T18:30:24;1.35;;;1.20;;
56419;SDS011;42323;52.170;7.538;2022-08-11T18:33:12;3.20;;;2.40;;
56419;SDS011;42323;52.170;7.538;2022-08-11T18:36:20;3.65;;;1.50;;
56419;SDS011;42323;52.170;7.538;2022-08-11T18:39:11;2.85;;;1.40;;
56419;SDS011;42323;52.170;7.538;2022-08-11T18:42:00;3.90;;;1.33;;
56419;SDS011;42323;52.170;7.538;2022-08-11T18:44:56;2.50;;;1.13;;
56419;SDS011;42323;52.170;7.538;2022-08-11T18:47:46;3.72;;;1.40;;
56419;SDS011;42323;52.170;7.538;2022-08-11T18:50:36;2.95;;;1.40;;
56419;SDS011;42323;52.170;7.538;2022-08-11T18:53:45;6.15;;;1.55;;
56419;SDS011;42323;52.170;7.538;2022-08-11T18:56:34;2.92;;;1.40;;
56419;SDS011;42323;52.170;7.538;2022-08-11T18:59:21;1.98;;;1.10;;
56419;SDS011;42323;52.170;7.538;2022-08-11T19:02:10;2.35;;;1.10;;
56419;SDS011;42323;52.170;7.538;2022-08-11T19:05:15;3.50;;;1.40;;
56419;SDS011;42323;52.170;7.538;2022-08-11T19:08:22;3.08;;;1.38;;
56419;SDS011;42323;52.170;7.538;2022-08-11T19:11:13;3.00;;;1.60;;
56419;SDS011;42323;52.170;7.538;2022-08-11T19:14:07;2.60;;;1.20;;
56419;SDS011;42323;52.170;7.538;2022-08-11T19:16:54;4.15;;;1.55;;
56419;SDS011;42323;52.170;7.538;2022-08-11T19:20:03;5.60;;;1.30;;
56419;SDS011;42323;52.170;7.538;2022-08-11T19:22:52;2.78;;;1.40;;
56419;SDS011;42323;52.170;7.538;2022-08-11T19:25:42;4.70;;;1.45;;
56419;SDS011;42323;52.170;7.538;2022-08-11T19:28:29;2.03;;;1.50;;
56419;SDS011;42323;52.170;7.538;2022-08-11T19:31:19;2.60;;;1.52;;
56419;SDS011;42323;52.170;7.538;2022-08-11T19:34:10;1.88;;;1.40;;
56419;SDS011;42323;52.170;7.538;2022-08-11T19:37:05;3.95;;;1.60;;
56419;SDS011;42323;52.170;7.538;2022-08-11T19:39:57;2.55;;;1.40;;
56419;SDS011;42323;52.170;7.538;2022-08-11T19:42:44;3.58;;;1.40;;
56419;SDS011;42323;52.170;7.538;2022-08-11T19:45:50;2.78;;;1.30;;
56419;SDS011;42323;52.170;7.538;2022-08-11T19:48:37;2.38;;;1.45;;
56419;SDS011;42323;52.170;7.538;2022-08-11T19:51:25;1.65;;;1.20;;
56419;SDS011;42323;52.170;7.538;2022-08-11T19:54:19;1.80;;;1.40;;
56419;SDS011;42323;52.170;7.538;2022-08-11T19:57:08;2.10;;;1.40;;